Time;durP1;ratioP1;P1;durP2;ratioP2;P2;SDS_P1;SDS_P2;PMS_P1;PMS_P2;Temp;Humidity;BMP_temperature;BMP_pressure;BME280_temperature;BME280_humidity;BME280_pressure;Samples;Min_cycle;Max_cycle;Signal;HPM_P1;HPM_P2
2023/02/25 00:00:31;;;;;;;7.27;6.57;;;4.20;99.90;;;;;;5051788;28;20186;-63
2023/02/25 00:02:58;;;;;;;6.33;6.03;;;4.20;99.90;;;;;;5052499;28;20650;-63
2023/02/25 00:05:25;;;;;;;11.73;6.73;;;4.20;99.90;;;;;;5051875;28;20247;-63
2023/02/25 00:07:50;;;;;;;9.93;7.10;;;4.20;99.90;;;;;;5052329;28;20186;-63
2023/02/25 00:10:16;;;;;;;9.00;6.30;;;4.20;99.90;;;;;;5051612;28;20174;-63
2023/02/25 00:12:42;;;;;;;6.37;6.07;;;4.20;99.90;;;;;;5052049;28;20171;-63
2023/02/25 00:15:08;;;;;;;6.40;6.10;;;4.10;99.90;;;;;;5051749;28;20206;-63
2023/02/25 00:17:34;;;;;;;6.97;6.67;;;4.10;99.90;;;;;;5052006;28;20644;-63
2023/02/25 00:20:00;;;;;;;6.80;6.40;;;4.10;99.90;;;;;;5051363;28;20178;-63
2023/02/25 00:22:29;;;;;;;7.73;7.33;;;4.10;99.90;;;;;;5051788;28;20163;-63
2023/02/25 00:24:55;;;;;;;11.73;7.90;;;4.10;99.90;;;;;;5051698;28;20193;-63
2023/02/25 00:27:22;;;;;;;6.73;6.33;;;4.20;99.90;;;;;;5051974;28;20159;-63
2023/02/25 00:29:52;;;;;;;6.90;6.53;;;4.20;99.90;;;;;;5051195;28;20182;-63
2023/02/25 00:32:18;;;;;;;7.90;7.50;;;4.20;99.90;;;;;;5051748;28;20204;-63
2023/02/25 00:34:43;;;;;;;7.23;6.73;;;4.20;99.90;;;;;;5051239;28;20174;-63
2023/02/25 00:37:09;;;;;;;11.83;6.90;;;4.10;99.90;;;;;;5051966;28;20430;-63
2023/02/25 00:39:43;;;;;;;7.13;6.73;;;4.10;99.90;;;;;;5051173;28;20175;-62
2023/02/25 00:42:17;;;;;;;6.47;6.17;;;4.00;99.90;;;;;;5030493;28;20175;-63
2023/02/25 00:44:48;;;;;;;6.83;6.53;;;3.90;99.90;;;;;;5045405;28;20183;-63
2023/02/25 00:47:15;;;;;;;14.23;9.33;;;3.90;99.90;;;;;;5051728;28;20167;-62
2023/02/25 00:49:41;;;;;;;8.00;7.70;;;3.80;99.90;;;;;;5050896;28;20228;-62
2023/02/25 00:52:08;;;;;;;9.17;8.37;;;3.70;99.90;;;;;;5051546;28;20573;-63
2023/02/25 00:54:34;;;;;;;9.27;7.90;;;3.70;99.90;;;;;;5050304;28;20190;-63
2023/02/25 00:57:00;;;;;;;9.90;7.57;;;3.70;99.90;;;;;;5050213;28;20229;-63
2023/02/25 00:59:25;;;;;;;8.00;7.20;;;3.70;99.90;;;;;;5050775;28;20402;-62
2023/02/25 01:01:51;;;;;;;7.47;7.17;;;3.70;99.90;;;;;;5051313;28;20179;-63
2023/02/25 01:04:17;;;;;;;7.97;7.30;;;3.70;99.90;;;;;;5051193;28;20262;-63
2023/02/25 01:06:43;;;;;;;7.13;6.83;;;3.70;99.90;;;;;;5051011;28;20259;-63
2023/02/25 01:09:15;;;;;;;8.77;8.07;;;3.70;99.90;;;;;;5050961;28;20190;-62
2023/02/25 01:11:43;;;;;;;7.70;7.17;;;3.70;99.90;;;;;;5051232;28;20194;-63
2023/02/25 01:14:15;;;;;;;6.80;6.50;;;3.70;99.90;;;;;;5051118;28;20644;-63
2023/02/25 01:16:41;;;;;;;11.40;8.47;;;3.70;99.90;;;;;;5050645;28;20198;-63
2023/02/25 01:19:11;;;;;;;8.43;8.10;;;3.70;99.90;;;;;;5051084;28;20253;-62
2023/02/25 01:21:40;;;;;;;9.03;8.33;;;3.70;99.90;;;;;;5050821;28;20187;-63
2023/02/25 01:24:10;;;;;;;9.80;9.40;;;3.70;99.90;;;;;;5051162;28;20171;-62
2023/02/25 01:26:38;;;;;;;9.60;9.20;;;3.70;99.90;;;;;;5050715;28;20190;-62
2023/02/25 01:29:09;;;;;;;10.97;10.00;;;3.70;99.90;;;;;;5051349;28;20174;-64
2023/02/25 01:31:36;;;;;;;11.57;10.77;;;3.70;99.90;;;;;;5050829;28;20269;-65
2023/02/25 01:34:03;;;;;;;10.00;9.60;;;3.80;99.90;;;;;;5050990;28;20260;-64
2023/02/25 01:36:30;;;;;;;9.57;9.17;;;3.80;99.90;;;;;;5050642;28;20187;-64
2023/02/25 01:38:57;;;;;;;10.00;9.20;;;3.80;99.90;;;;;;5051164;28;20629;-65
2023/02/25 01:41:24;;;;;;;8.70;8.33;;;3.90;99.90;;;;;;5050204;28;20201;-64
2023/02/25 01:44:04;;;;;;;8.67;8.27;;;3.90;99.90;;;;;;5050874;28;20580;-65
2023/02/25 01:46:30;;;;;;;10.23;8.30;;;3.90;99.90;;;;;;5050474;28;20218;-65
2023/02/25 01:48:56;;;;;;;14.77;8.17;;;3.90;99.90;;;;;;5051017;28;20236;-64
2023/02/25 01:51:26;;;;;;;8.27;7.93;;;3.90;99.90;;;;;;5050527;28;20202;-65
2023/02/25 01:53:53;;;;;;;8.27;7.97;;;3.90;99.90;;;;;;5051016;28;20171;-65
2023/02/25 01:58:48;;;;;;;10.40;9.53;;;3.90;99.90;;;;;;5010692;28;20208;-63
2023/02/25 02:01:17;;;;;;;7.60;7.20;;;3.90;99.90;;;;;;5010878;28;20192;-63
2023/02/25 02:03:44;;;;;;;9.67;9.10;;;3.90;99.90;;;;;;5011261;28;20184;-63
2023/02/25 02:06:27;;;;;;;8.37;8.03;;;3.90;99.90;;;;;;5013640;28;20192;-63
2023/02/25 02:08:53;;;;;;;9.17;8.67;;;3.90;99.90;;;;;;5014876;28;20180;-63
2023/02/25 02:11:19;;;;;;;8.33;8.00;;;3.90;99.90;;;;;;5014196;28;20214;-63
2023/02/25 02:13:50;;;;;;;9.03;8.43;;;3.80;99.90;;;;;;5014646;28;20255;-63
2023/02/25 02:16:24;;;;;;;8.43;8.03;;;3.80;99.90;;;;;;5014324;28;20204;-63
2023/02/25 02:19:02;;;;;;;8.67;8.27;;;3.80;99.90;;;;;;5014534;28;20255;-63
2023/02/25 02:21:39;;;;;;;9.43;8.73;;;3.70;99.90;;;;;;5014027;28;20537;-62
2023/02/25 02:24:23;;;;;;;10.50;9.70;;;3.80;99.90;;;;;;5014565;28;20218;-63
2023/02/25 02:27:02;;;;;;;8.80;8.30;;;3.70;99.90;;;;;;5014351;28;20231;-63
2023/02/25 02:30:15;;;;;;;15.83;8.77;;;3.70;99.90;;;;;;5013954;28;20579;-63
2023/02/25 02:33:14;;;;;;;9.67;8.63;;;3.70;99.90;;;;;;4995689;28;20195;-63
2023/02/25 02:35:47;;;;;;;8.20;7.90;;;3.70;99.90;;;;;;5013839;28;20179;-63
2023/02/25 02:38:41;;;;;;;10.90;9.97;;;3.70;99.90;;;;;;5014414;28;20538;-64
2023/02/25 02:41:34;;;;;;;8.53;8.03;;;3.70;99.90;;;;;;5013859;28;20681;-63
2023/02/25 02:44:22;;;;;;;10.63;9.93;;;3.70;99.90;;;;;;5013093;28;20180;-64
2023/02/25 02:46:56;;;;;;;9.60;9.20;;;3.70;99.90;;;;;;5013247;28;20615;-63
2023/02/25 02:50:06;;;;;;;7.83;7.43;;;3.70;99.90;;;;;;5013869;28;20226;-63
2023/02/25 02:52:37;;;;;;;9.40;8.60;;;3.70;99.90;;;;;;4972011;28;20181;-62
2023/02/25 02:55:21;;;;;;;8.20;7.90;;;3.70;99.90;;;;;;4972748;28;20172;-63
2023/02/25 02:57:49;;;;;;;9.87;8.87;;;3.60;99.90;;;;;;4999562;28;20228;-63
2023/02/25 03:00:17;;;;;;;8.00;7.60;;;3.60;99.90;;;;;;5013545;28;20187;-63
2023/02/25 03:02:50;;;;;;;9.37;8.80;;;3.60;99.90;;;;;;5013271;28;20200;-63
2023/02/25 03:05:18;;;;;;;9.60;8.90;;;3.60;99.90;;;;;;5014140;28;20242;-63
2023/02/25 03:07:59;;;;;;;8.97;8.37;;;3.70;99.90;;;;;;5013359;28;20251;-63
2023/02/25 03:10:25;;;;;;;10.17;9.13;;;3.70;99.90;;;;;;5012186;28;20535;-63
2023/02/25 03:12:50;;;;;;;10.60;9.80;;;3.70;99.90;;;;;;5013291;28;20184;-63
2023/02/25 03:15:16;;;;;;;8.33;7.90;;;3.70;99.90;;;;;;5013585;28;20168;-63
2023/02/25 03:17:46;;;;;;;14.33;8.67;;;3.80;99.90;;;;;;5012246;28;20230;-63
2023/02/25 03:20:20;;;;;;;8.10;7.73;;;3.80;99.90;;;;;;5013371;28;20644;-63
2023/02/25 03:22:48;;;;;;;8.53;8.00;;;3.80;99.90;;;;;;5013093;28;20180;-63
2023/02/25 03:25:24;;;;;;;8.53;8.13;;;3.80;99.90;;;;;;5014332;28;20590;-68
2023/02/25 03:27:52;;;;;;;9.17;8.73;;;3.80;99.90;;;;;;5013016;28;20553;-67
2023/02/25 03:30:49;;;;;;;9.60;8.97;;;3.80;99.90;;;;;;5012893;28;20164;-65
2023/02/25 03:33:38;;;;;;;8.13;7.63;;;3.80;99.90;;;;;;4999067;28;20184;-68
2023/02/25 03:36:12;;;;;;;9.13;8.17;;;3.80;99.90;;;;;;5013266;28;20238;-66
2023/02/25 03:38:43;;;;;;;8.53;8.13;;;3.80;99.90;;;;;;5013753;28;20582;-65
2023/02/25 03:41:11;;;;;;;9.87;9.40;;;3.80;99.90;;;;;;5013468;28;20267;-68
2023/02/25 03:43:43;;;;;;;8.57;8.27;;;3.80;99.90;;;;;;5014082;28;20303;-67
2023/02/25 03:46:09;;;;;;;9.07;8.47;;;3.80;99.90;;;;;;5014441;28;20532;-65
2023/02/25 03:48:37;;;;;;;8.80;7.90;;;3.80;99.90;;;;;;5029391;28;20176;-65
2023/02/25 03:51:04;;;;;;;9.87;8.93;;;3.80;99.90;;;;;;5012473;28;20227;-67
2023/02/25 03:53:32;;;;;;;8.97;8.47;;;3.90;99.90;;;;;;5014086;28;20167;-68
2023/02/25 03:56:04;;;;;;;8.50;8.00;;;3.90;99.90;;;;;;5013950;28;20195;-66
2023/02/25 03:58:32;;;;;;;8.70;8.23;;;3.90;99.90;;;;;;5014208;28;20597;-65
2023/02/25 04:01:01;;;;;;;9.57;9.17;;;3.90;99.90;;;;;;5013706;28;20218;-67
2023/02/25 04:03:27;;;;;;;9.33;8.93;;;3.90;99.90;;;;;;5014250;28;20176;-67
2023/02/25 04:05:53;;;;;;;9.33;8.90;;;3.90;99.90;;;;;;5013553;28;20621;-67
2023/02/25 04:08:18;;;;;;;11.90;9.33;;;3.90;99.90;;;;;;5014160;28;20263;-67
2023/02/25 04:10:45;;;;;;;9.20;8.00;;;3.90;99.90;;;;;;5013343;28;20204;-67
2023/02/25 04:13:13;;;;;;;12.27;11.63;;;3.90;99.90;;;;;;5013979;28;20407;-70
2023/02/25 04:15:39;;;;;;;9.10;8.40;;;3.90;99.90;;;;;;5013840;28;20177;-65
2023/02/25 04:18:05;;;;;;;7.60;7.20;;;4.00;99.90;;;;;;5013983;28;20259;-65
2023/02/25 04:20:31;;;;;;;6.83;6.53;;;4.00;99.90;;;;;;5013022;28;20255;-67
2023/02/25 04:22:58;;;;;;;7.83;7.43;;;4.00;99.90;;;;;;5014236;28;20187;-65
2023/02/25 04:25:23;;;;;;;6.70;6.40;;;4.00;99.90;;;;;;5013521;28;20183;-65
2023/02/25 04:27:49;;;;;;;7.20;6.90;;;3.90;99.90;;;;;;5013483;28;20534;-67
2023/02/25 04:30:15;;;;;;;6.90;6.60;;;3.90;99.90;;;;;;5013153;28;20220;-70
2023/02/25 04:32:41;;;;;;;8.10;7.70;;;3.90;99.90;;;;;;5013216;28;20179;-65
2023/02/25 04:35:13;;;;;;;7.43;7.13;;;3.90;99.90;;;;;;5012210;28;20190;-67
2023/02/25 04:37:40;;;;;;;8.60;8.20;;;3.90;99.90;;;;;;5012882;28;20188;-66
2023/02/25 04:40:11;;;;;;;8.60;8.20;;;3.90;99.90;;;;;;5013157;28;20172;-65
2023/02/25 04:42:37;;;;;;;8.10;7.70;;;3.90;99.90;;;;;;5013149;28;20176;-66
2023/02/25 04:45:04;;;;;;;7.57;7.17;;;3.90;99.90;;;;;;5013905;28;20180;-67
2023/02/25 04:47:30;;;;;;;8.27;7.83;;;3.90;99.90;;;;;;5013252;28;20219;-64
2023/02/25 04:49:56;;;;;;;9.50;7.17;;;3.90;99.90;;;;;;5012938;28;20257;-68
2023/02/25 04:52:21;;;;;;;7.77;7.37;;;3.90;99.90;;;;;;5013416;28;20294;-64
2023/02/25 04:54:47;;;;;;;8.20;7.57;;;3.90;99.90;;;;;;5012935;28;20270;-67
2023/02/25 04:57:13;;;;;;;8.60;8.10;;;3.90;99.90;;;;;;5013210;28;20219;-66
2023/02/25 04:59:39;;;;;;;9.10;8.70;;;3.90;99.90;;;;;;5012903;28;20183;-66
2023/02/25 05:02:06;;;;;;;9.03;8.63;;;3.90;99.90;;;;;;5013089;28;20208;-66
2023/02/25 05:04:32;;;;;;;9.07;8.60;;;4.00;99.90;;;;;;5013049;28;20191;-66
2023/02/25 05:06:58;;;;;;;8.03;7.73;;;3.90;99.90;;;;;;5011745;28;20200;-69
2023/02/25 05:09:23;;;;;;;8.13;7.63;;;3.90;99.90;;;;;;5013356;28;20182;-68
2023/02/25 05:11:49;;;;;;;8.07;7.67;;;3.90;99.90;;;;;;5027903;28;20215;-67
2023/02/25 05:14:14;;;;;;;12.00;11.50;;;3.90;99.90;;;;;;5013266;28;20179;-65
2023/02/25 05:16:40;;;;;;;9.10;8.17;;;3.80;99.90;;;;;;5027965;28;20192;-66
2023/02/25 05:19:06;;;;;;;8.37;7.97;;;3.90;99.90;;;;;;5012962;28;20195;-67
2023/02/25 05:21:32;;;;;;;10.00;9.40;;;3.90;99.90;;;;;;5013169;28;20173;-66
2023/02/25 05:23:57;;;;;;;11.20;10.40;;;3.90;99.90;;;;;;5012948;28;20194;-65
2023/02/25 05:26:24;;;;;;;9.40;8.70;;;3.90;99.90;;;;;;5011922;28;20294;-65
2023/02/25 05:28:55;;;;;;;9.17;8.37;;;3.90;99.90;;;;;;5011320;28;20180;-67
2023/02/25 05:31:23;;;;;;;7.57;7.27;;;3.90;99.90;;;;;;5012952;28;20235;-67
2023/02/25 05:33:49;;;;;;;9.20;8.60;;;3.90;99.90;;;;;;5012700;28;20176;-67
2023/02/25 05:36:16;;;;;;;7.53;7.13;;;3.90;99.90;;;;;;5012689;28;20287;-66
2023/02/25 05:38:42;;;;;;;8.47;8.17;;;3.90;99.90;;;;;;5012367;28;20180;-67
2023/02/25 05:41:12;;;;;;;9.30;8.77;;;3.90;99.90;;;;;;5014366;28;20184;-66
2023/02/25 05:43:39;;;;;;;10.93;10.13;;;3.90;99.90;;;;;;5016536;28;20215;-68
2023/02/25 05:46:10;;;;;;;10.57;9.70;;;3.90;99.90;;;;;;5016486;28;20196;-66
2023/02/25 05:48:37;;;;;;;8.20;7.70;;;3.90;99.90;;;;;;5016316;28;20180;-66
2023/02/25 05:51:06;;;;;;;9.47;9.03;;;3.90;99.90;;;;;;5015817;28;20220;-67
2023/02/25 05:53:32;;;;;;;8.73;8.30;;;3.90;99.90;;;;;;5016386;28;20176;-67
2023/02/25 05:55:58;;;;;;;9.37;8.77;;;3.90;99.90;;;;;;5016532;28;20200;-68
2023/02/25 05:58:24;;;;;;;9.40;9.00;;;3.90;99.90;;;;;;5016172;28;20662;-65
2023/02/25 06:00:49;;;;;;;9.43;8.93;;;3.90;99.90;;;;;;5015799;28;20545;-67
2023/02/25 06:03:15;;;;;;;8.97;8.57;;;3.90;99.90;;;;;;5016340;28;20561;-66
2023/02/25 06:05:42;;;;;;;8.57;8.13;;;3.90;99.90;;;;;;5015615;28;20180;-64
2023/02/25 06:08:11;;;;;;;7.97;7.57;;;3.90;99.90;;;;;;5016165;28;20168;-66
2023/02/25 06:10:38;;;;;;;9.57;8.30;;;3.90;99.90;;;;;;5014962;28;20231;-64
2023/02/25 06:13:05;;;;;;;8.43;7.90;;;3.90;99.90;;;;;;5016090;28;20200;-69
2023/02/25 06:15:31;;;;;;;7.97;7.63;;;3.90;99.90;;;;;;5015697;28;20275;-65
2023/02/25 06:17:57;;;;;;;8.63;8.03;;;3.90;99.90;;;;;;5015498;28;20254;-68
2023/02/25 06:20:24;;;;;;;13.07;7.67;;;3.90;99.90;;;;;;5015885;28;20260;-67
2023/02/25 06:22:53;;;;;;;8.77;8.30;;;3.90;99.90;;;;;;5016113;28;20739;-67
2023/02/25 06:25:19;;;;;;;9.80;8.73;;;3.90;99.90;;;;;;5016182;28;20168;-68
2023/02/25 06:27:45;;;;;;;8.37;7.97;;;3.90;99.90;;;;;;5015470;28;20204;-66
2023/02/25 06:30:11;;;;;;;9.67;9.23;;;3.90;99.90;;;;;;5015848;28;20271;-68
2023/02/25 06:32:37;;;;;;;8.40;8.00;;;3.90;99.90;;;;;;5015875;28;20204;-65
2023/02/25 06:35:05;;;;;;;9.67;7.50;;;3.90;99.90;;;;;;5014580;28;20538;-68
2023/02/25 06:37:31;;;;;;;7.40;7.10;;;3.90;99.90;;;;;;5015537;28;20758;-66
2023/02/25 06:39:57;;;;;;;7.50;7.20;;;3.90;99.90;;;;;;5030761;28;20223;-66
2023/02/25 06:42:23;;;;;;;7.70;7.40;;;3.90;99.90;;;;;;5015478;28;20184;-67
2023/02/25 06:44:48;;;;;;;8.20;7.80;;;3.90;99.90;;;;;;5015211;28;20885;-65
2023/02/25 06:47:14;;;;;;;27.77;8.93;;;4.00;99.90;;;;;;5015677;28;20219;-66
2023/02/25 06:49:39;;;;;;;8.37;7.77;;;4.00;99.90;;;;;;5015072;28;20227;-66
2023/02/25 06:52:05;;;;;;;8.07;7.77;;;4.00;99.90;;;;;;5014005;28;20242;-69
2023/02/25 06:54:31;;;;;;;11.27;9.40;;;4.00;99.90;;;;;;5013462;28;20555;-64
2023/02/25 06:56:56;;;;;;;7.37;6.60;;;4.00;99.90;;;;;;5014034;28;20202;-64
2023/02/25 06:59:22;;;;;;;8.87;6.70;;;4.00;99.90;;;;;;5011734;28;20584;-64
2023/02/25 07:01:48;;;;;;;8.63;8.00;;;4.00;99.90;;;;;;5013501;28;20172;-64
2023/02/25 07:04:15;;;;;;;9.87;9.00;;;4.10;99.90;;;;;;5013763;28;20176;-64
2023/02/25 07:06:41;;;;;;;9.47;8.53;;;4.10;99.90;;;;;;4993998;28;20193;-64
2023/02/25 07:09:06;;;;;;;6.23;6.03;;;4.10;99.90;;;;;;4993825;28;20527;-64
2023/02/25 07:11:33;;;;;;;8.20;7.80;;;4.10;99.90;;;;;;5011571;28;20208;-64
2023/02/25 07:13:59;;;;;;;11.70;9.27;;;4.10;99.90;;;;;;5013380;28;20168;-64
2023/02/25 07:16:25;;;;;;;12.30;7.97;;;4.10;99.90;;;;;;5013143;28;20546;-64
2023/02/25 07:18:51;;;;;;;14.20;12.90;;;4.20;99.90;;;;;;5013073;28;20630;-64
2023/02/25 07:21:16;;;;;;;11.60;10.77;;;4.20;99.90;;;;;;5012555;28;20191;-64
2023/02/25 07:23:43;;;;;;;8.67;8.27;;;4.20;99.90;;;;;;5012566;28;20182;-64
2023/02/25 07:26:10;;;;;;;9.37;8.57;;;4.20;99.90;;;;;;5012900;28;20231;-64
2023/02/25 07:28:37;;;;;;;7.67;7.30;;;4.30;99.90;;;;;;5012837;28;20259;-64
2023/02/25 07:31:20;;;;;;;7.50;6.90;;;4.30;99.90;;;;;;5012598;28;20291;-64
2023/02/25 07:33:46;;;;;;;7.57;7.13;;;4.30;99.90;;;;;;5011707;28;20176;-64
2023/02/25 07:36:13;;;;;;;8.13;7.53;;;4.30;99.90;;;;;;5012693;28;20200;-64
2023/02/25 07:38:39;;;;;;;6.60;6.10;;;4.30;99.90;;;;;;5012622;28;20175;-63
2023/02/25 07:41:07;;;;;;;8.47;7.17;;;4.40;99.90;;;;;;5012692;28;20617;-64
2023/02/25 07:43:33;;;;;;;10.83;10.00;;;4.40;99.90;;;;;;5012410;28;20202;-64
2023/02/25 07:45:59;;;;;;;8.37;7.87;;;4.40;99.90;;;;;;5012800;28;20228;-64
2023/02/25 07:48:25;;;;;;;13.47;7.00;;;4.50;99.90;;;;;;5012606;28;20215;-64
2023/02/25 07:50:51;;;;;;;6.47;6.17;;;4.50;99.90;;;;;;5012016;28;20199;-64
2023/02/25 07:53:17;;;;;;;7.50;5.77;;;4.60;99.90;;;;;;5012611;28;20250;-64
2023/02/25 07:55:46;;;;;;;6.87;6.20;;;4.60;99.90;;;;;;5012674;28;20661;-64
2023/02/25 07:58:12;;;;;;;7.60;7.00;;;4.60;99.90;;;;;;5011037;28;20626;-66
2023/02/25 08:00:39;;;;;;;6.43;6.13;;;4.60;99.90;;;;;;5012144;28;20231;-64
2023/02/25 08:03:06;;;;;;;6.77;6.27;;;4.60;99.90;;;;;;5011687;28;20170;-64
2023/02/25 08:05:35;;;;;;;8.03;7.43;;;4.70;99.90;;;;;;5012249;28;20176;-64
2023/02/25 08:08:01;;;;;;;11.90;8.57;;;4.70;99.90;;;;;;5012146;28;20188;-63
2023/02/25 08:10:27;;;;;;;5.67;5.43;;;4.80;99.90;;;;;;5012030;28;20592;-64
2023/02/25 08:12:52;;;;;;;17.57;6.50;;;4.90;99.90;;;;;;5011817;28;20174;-64
2023/02/25 08:15:18;;;;;;;6.57;6.17;;;5.00;99.90;;;;;;5012358;28;20168;-64
2023/02/25 08:17:44;;;;;;;5.67;5.37;;;5.20;99.90;;;;;;5011860;28;20212;-64
2023/02/25 08:20:10;;;;;;;8.97;6.57;;;5.30;99.90;;;;;;5011847;28;20172;-64
2023/02/25 08:22:36;;;;;;;6.93;6.53;;;5.40;99.90;;;;;;5011876;28;20655;-64
2023/02/25 08:25:03;;;;;;;8.63;7.90;;;5.30;99.90;;;;;;5012063;28;20208;-64
2023/02/25 08:27:29;;;;;;;6.70;6.20;;;5.30;99.90;;;;;;5011403;28;20204;-63
2023/02/25 08:29:55;;;;;;;6.20;5.77;;;5.40;99.90;;;;;;5010236;28;20180;-63
2023/02/25 08:32:23;;;;;;;6.00;5.60;;;5.30;99.90;;;;;;5011844;28;20211;-63
2023/02/25 08:34:53;;;;;;;5.87;5.57;;;5.30;99.90;;;;;;5010546;28;20180;-64
2023/02/25 08:37:18;;;;;;;17.87;6.47;;;5.30;99.90;;;;;;5012115;28;20238;-63
2023/02/25 08:39:44;;;;;;;6.90;5.90;;;5.30;99.90;;;;;;5011314;28;20176;-63
2023/02/25 08:42:17;;;;;;;7.37;6.67;;;5.30;99.90;;;;;;5011926;28;20707;-63
2023/02/25 08:44:43;;;;;;;14.27;7.17;;;5.50;99.90;;;;;;5011547;28;20202;-64
2023/02/25 08:47:09;;;;;;;7.73;6.97;;;5.60;99.90;;;;;;5011660;28;20203;-64
2023/02/25 08:49:34;;;;;;;8.00;6.17;;;5.60;99.90;;;;;;5011317;28;20262;-63
2023/02/25 08:52:00;;;;;;;6.00;5.70;;;5.70;99.90;;;;;;5011800;28;20196;-63
2023/02/25 08:54:26;;;;;;;6.63;6.33;;;5.80;99.90;;;;;;5011774;28;20176;-63
2023/02/25 08:56:54;;;;;;;6.80;6.20;;;5.70;99.90;;;;;;5011277;28;20692;-63
2023/02/25 08:59:20;;;;;;;6.97;6.33;;;5.70;99.90;;;;;;5011313;28;20164;-63
2023/02/25 09:01:47;;;;;;;6.57;5.40;;;5.60;99.90;;;;;;5011612;28;20183;-63
2023/02/25 09:04:20;;;;;;;7.20;5.90;;;5.60;99.90;;;;;;5011430;28;20168;-63
2023/02/25 09:06:46;;;;;;;6.93;6.43;;;5.50;99.90;;;;;;5011392;28;20967;-63
2023/02/25 09:09:13;;;;;;;7.33;6.60;;;5.50;99.90;;;;;;5011241;28;20216;-63
2023/02/25 09:11:39;;;;;;;6.33;5.83;;;5.60;99.90;;;;;;5011226;28;20747;-64
2023/02/25 09:14:05;;;;;;;5.97;5.53;;;5.60;99.90;;;;;;5011359;28;20172;-64
2023/02/25 09:16:31;;;;;;;12.70;6.60;;;5.50;99.90;;;;;;5015018;28;20241;-63
2023/02/25 09:18:56;;;;;;;7.80;6.47;;;5.30;99.90;;;;;;5015346;28;20172;-63
2023/02/25 09:21:22;;;;;;;7.60;7.00;;;5.10;99.90;;;;;;5015661;28;20260;-64
2023/02/25 09:23:50;;;;;;;7.10;6.77;;;5.00;99.90;;;;;;5013914;28;20183;-64
2023/02/25 09:26:16;;;;;;;11.40;8.47;;;4.80;99.90;;;;;;5015543;28;20202;-63
2023/02/25 09:28:42;;;;;;;7.00;6.60;;;4.70;99.90;;;;;;5015025;28;20194;-64
2023/02/25 09:31:08;;;;;;;7.53;6.77;;;4.60;99.90;;;;;;5014125;28;20612;-64
2023/02/25 09:33:35;;;;;;;7.73;7.00;;;4.50;99.90;;;;;;5013379;28;20322;-64
2023/02/25 09:36:29;;;;;;;8.33;7.83;;;4.40;99.90;;;;;;5013907;28;20196;-64
2023/02/25 09:38:56;;;;;;;8.70;7.87;;;4.40;99.90;;;;;;5004634;28;20318;-64
2023/02/25 09:41:27;;;;;;;6.67;6.30;;;4.50;99.90;;;;;;5014725;28;20180;-64
2023/02/25 09:44:05;;;;;;;7.27;6.87;;;4.60;99.90;;;;;;5014883;28;20180;-64
2023/02/25 09:46:33;;;;;;;7.60;6.97;;;4.70;99.90;;;;;;5014090;28;20200;-64
2023/02/25 09:49:28;;;;;;;7.23;6.53;;;4.90;99.90;;;;;;5015082;28;20203;-64
2023/02/25 09:52:22;;;;;;;8.90;8.20;;;4.90;99.90;;;;;;5013538;28;20216;-64
2023/02/25 09:55:22;;;;;;;8.30;7.47;;;5.00;99.90;;;;;;5014601;28;20211;-64
2023/02/25 09:58:18;;;;;;;11.53;6.97;;;5.20;99.90;;;;;;5011326;28;20310;-64
2023/02/25 10:00:52;;;;;;;10.70;6.40;;;5.50;99.90;;;;;;5014130;28;20653;-64
2023/02/25 10:03:55;;;;;;;6.00;5.70;;;5.90;99.90;;;;;;5015130;28;20172;-64
2023/02/25 10:06:27;;;;;;;7.07;6.63;;;6.00;99.90;;;;;;5013292;28;20669;-64
2023/02/25 10:09:20;;;;;;;11.13;6.90;;;6.20;99.90;;;;;;5014580;28;20262;-64
2023/02/25 10:11:52;;;;;;;12.60;7.60;;;6.40;99.90;;;;;;5014432;28;20572;-64
2023/02/25 10:14:30;;;;;;;6.40;5.80;;;6.60;99.90;;;;;;5014726;28;20168;-64
2023/02/25 10:17:02;;;;;;;9.10;7.60;;;6.70;99.90;;;;;;5014570;28;20237;-64
2023/02/25 10:19:47;;;;;;;6.77;6.27;;;6.90;99.90;;;;;;5013050;28;20630;-64
2023/02/25 10:22:28;;;;;;;17.10;7.50;;;7.00;99.90;;;;;;5014615;28;20183;-64
2023/02/25 10:25:03;;;;;;;5.47;5.17;;;7.20;99.90;;;;;;5014330;28;20291;-64
2023/02/25 10:27:36;;;;;;;7.37;6.70;;;7.40;99.90;;;;;;5013981;28;20274;-64
2023/02/25 10:30:13;;;;;;;9.87;9.47;;;7.70;99.90;;;;;;5014345;28;20180;-64
2023/02/25 10:32:42;;;;;;;7.93;7.53;;;8.00;99.90;;;;;;5013970;28;20200;-64
2023/02/25 10:35:25;;;;;;;9.43;6.33;;;8.50;99.90;;;;;;5014098;28;20173;-64
2023/02/25 10:37:51;;;;;;;6.60;6.07;;;8.80;99.90;;;;;;5013749;28;20607;-64
2023/02/25 10:40:21;;;;;;;8.00;6.60;;;8.80;99.90;;;;;;5013718;28;20176;-64
2023/02/25 10:42:53;;;;;;;7.73;5.57;;;9.00;99.90;;;;;;5013797;28;20211;-64
2023/02/25 10:45:24;;;;;;;5.93;5.53;;;9.00;99.90;;;;;;5013236;28;20264;-64
2023/02/25 10:48:12;;;;;;;5.53;5.23;;;8.90;99.90;;;;;;5013079;28;20178;-64
2023/02/25 10:50:38;;;;;;;5.87;5.37;;;8.40;99.90;;;;;;5012796;28;20185;-64
2023/02/25 10:53:17;;;;;;;8.17;6.83;;;7.60;99.90;;;;;;5013872;28;20649;-64
2023/02/25 10:55:42;;;;;;;5.63;5.43;;;7.00;99.90;;;;;;5013551;28;20226;-64
2023/02/25 10:58:32;;;;;;;5.80;5.40;;;6.00;99.90;;;;;;5013984;28;20646;-64
2023/02/25 11:01:21;;;;;;;7.37;6.97;;;4.50;99.90;;;;;;5012244;28;20191;-63
2023/02/25 11:03:59;;;;;;;8.00;7.60;;;3.60;99.90;;;;;;4997828;28;20231;-63
2023/02/25 11:06:24;;;;;;;7.03;6.73;;;3.20;99.90;;;;;;5012339;28;20206;-63
2023/02/25 11:08:52;;;;;;;6.67;6.37;;;2.90;99.90;;;;;;5013379;28;20218;-63
2023/02/25 11:11:26;;;;;;;6.50;6.20;;;2.60;99.90;;;;;;5012920;28;20207;-63
2023/02/25 11:14:17;;;;;;;7.27;6.63;;;2.30;99.90;;;;;;5013225;28;20234;-63
2023/02/25 11:16:44;;;;;;;6.73;6.43;;;2.10;99.90;;;;;;5013245;28;20253;-63
2023/02/25 11:19:13;;;;;;;6.60;6.30;;;2.20;99.90;;;;;;5012790;28;20573;-63
2023/02/25 11:21:39;;;;;;;6.93;6.53;;;2.40;99.90;;;;;;5013194;28;20176;-63
2023/02/25 11:24:16;;;;;;;6.20;5.90;;;2.50;99.90;;;;;;5012897;28;20266;-64
2023/02/25 11:26:48;;;;;;;5.83;5.63;;;2.60;99.90;;;;;;5011931;28;20239;-64
2023/02/25 11:29:18;;;;;;;6.27;5.90;;;2.70;99.90;;;;;;5013227;28;20194;-63
2023/02/25 11:31:50;;;;;;;6.50;6.13;;;2.80;99.90;;;;;;5012657;28;20208;-63
2023/02/25 11:34:23;;;;;;;7.13;6.63;;;3.00;99.90;;;;;;5013221;28;20172;-63
2023/02/25 11:36:49;;;;;;;7.27;6.93;;;3.30;99.90;;;;;;5012487;28;20203;-64
2023/02/25 11:39:29;;;;;;;6.30;5.90;;;4.00;99.90;;;;;;5011612;28;20176;-64
2023/02/25 11:42:20;;;;;;;6.77;6.37;;;4.60;99.90;;;;;;5012877;28;20195;-64
2023/02/25 11:44:46;;;;;;;5.60;5.30;;;5.10;99.90;;;;;;5012822;28;20269;-63
2023/02/25 11:47:33;;;;;;;8.53;7.20;;;5.80;99.90;;;;;;5012488;28;20212;-64
2023/02/25 11:50:17;;;;;;;6.30;6.00;;;6.20;99.90;;;;;;4999671;28;20198;-64
2023/02/25 11:52:53;;;;;;;6.47;6.17;;;6.50;99.90;;;;;;5012637;28;20208;-64
2023/02/25 11:55:22;;;;;;;5.53;5.23;;;7.10;99.90;;;;;;5027941;28;20187;-64
2023/02/25 11:57:57;;;;;;;7.90;7.40;;;7.50;99.90;;;;;;5012374;28;20215;-64
2023/02/25 12:00:27;;;;;;;7.90;7.43;;;8.00;99.90;;;;;;5011632;28;20577;-64
2023/02/25 12:03:14;;;;;;;7.83;7.30;;;8.30;99.90;;;;;;5012593;28;20210;-64
2023/02/25 12:06:02;;;;;;;5.90;5.50;;;8.20;99.90;;;;;;5012174;28;20191;-64
2023/02/25 12:08:56;;;;;;;6.10;5.60;;;8.20;99.90;;;;;;5012195;28;20680;-64
2023/02/25 12:11:54;;;;;;;5.83;5.33;;;8.30;99.90;;;;;;5012237;28;20556;-64
2023/02/25 12:14:58;;;;;;;4.93;4.63;;;8.80;99.90;;;;;;5012249;28;20274;-64
2023/02/25 12:17:59;;;;;;;6.87;5.40;;;8.90;99.90;;;;;;5012275;28;20268;-64
2023/02/25 12:20:52;;;;;;;10.53;5.70;;;8.90;99.90;;;;;;5010192;28;20179;-64
2023/02/25 12:23:29;;;;;;;9.30;5.00;;;9.10;99.90;;;;;;5012241;28;20243;-64
2023/02/25 12:26:05;;;;;;;7.00;6.60;;;9.10;99.90;;;;;;5010690;28;20294;-64
2023/02/25 12:28:49;;;;;;;5.60;4.97;;;9.20;99.90;;;;;;5011960;28;20186;-64
2023/02/25 12:31:52;;;;;;;5.93;5.40;;;9.50;99.90;;;;;;5011828;28;21128;-64
2023/02/25 12:34:46;;;;;;;17.43;4.87;;;9.70;99.90;;;;;;5011905;28;20180;-64
2023/02/25 12:37:26;;;;;;;5.50;5.20;;;9.80;99.90;;;;;;5012065;28;20283;-64
2023/02/25 12:40:30;;;;;;;7.27;5.30;;;9.90;99.90;;;;;;5011823;28;20176;-64
2023/02/25 12:43:12;;;;;;;5.33;4.93;;;9.90;99.90;;;;;;5011858;28;20183;-64
2023/02/25 12:45:56;;;;;;;5.37;5.07;;;10.20;99.90;;;;;;5012115;28;20168;-64
2023/02/25 12:48:31;;;;;;;5.70;5.20;;;10.30;99.90;;;;;;5011479;28;20180;-64
2023/02/25 12:51:08;;;;;;;5.03;4.73;;;10.30;99.90;;;;;;5011515;28;20238;-64
2023/02/25 12:54:01;;;;;;;5.07;4.77;;;10.40;99.90;;;;;;5009808;28;20176;-64
2023/02/25 12:56:53;;;;;;;5.50;5.20;;;9.90;99.90;;;;;;5011546;28;20329;-64
2023/02/25 12:59:27;;;;;;;5.87;5.53;;;9.20;99.90;;;;;;5011655;28;20195;-64
2023/02/25 13:02:38;;;;;;;6.17;5.67;;;8.70;99.90;;;;;;5010193;28;20683;-64
2023/02/25 13:05:12;;;;;;;6.73;6.33;;;8.50;99.90;;;;;;5011518;28;20183;-64
2023/02/25 13:07:56;;;;;;;7.80;7.10;;;8.40;99.90;;;;;;5011482;28;20203;-64
2023/02/25 13:10:30;;;;;;;6.30;5.13;;;8.50;99.90;;;;;;5011360;28;20187;-64
2023/02/25 13:13:10;;;;;;;6.87;5.03;;;9.20;99.90;;;;;;5011490;28;20184;-64
2023/02/25 13:15:52;;;;;;;4.97;4.77;;;9.20;99.90;;;;;;5011346;28;20172;-64
2023/02/25 13:18:21;;;;;;;6.10;5.70;;;9.10;99.90;;;;;;5011317;28;20260;-64
2023/02/25 13:21:06;;;;;;;6.50;6.10;;;8.60;99.90;;;;;;5010343;28;20523;-64